Time;durP1;ratioP1;P1;durP2;ratioP2;P2;SDS_P1;SDS_P2;PMS_P1;PMS_P2;Temp;Humidity;BMP_temperature;BMP_pressure;BME280_temperature;BME280_humidity;BME280_pressure;Samples;Min_cycle;Max_cycle;Signal;HPM_P1;HPM_P2
2022/11/26 00:00:41;;;;;;;15.98;6.95;;;6.10;99.90;;;;;;5073434;28;20067;-69
2022/11/26 00:03:08;;;;;;;14.73;5.10;;;6.10;99.90;;;;;;5073020;28;20490;-69
2022/11/26 00:05:34;;;;;;;13.30;4.63;;;6.10;99.90;;;;;;5073341;28;20044;-69
2022/11/26 00:08:01;;;;;;;13.90;5.05;;;6.00;99.90;;;;;;5073135;28;20516;-69
2022/11/26 00:10:34;;;;;;;19.08;5.03;;;6.10;99.90;;;;;;5073031;28;20584;-69
2022/11/26 00:13:00;;;;;;;21.77;5.28;;;6.30;99.90;;;;;;5055119;28;20046;-69
2022/11/26 00:15:28;;;;;;;14.00;5.32;;;6.20;99.90;;;;;;5073134;28;20033;-70
2022/11/26 00:17:55;;;;;;;13.10;4.97;;;6.10;99.90;;;;;;5073024;28;20131;-69
2022/11/26 00:20:29;;;;;;;17.25;5.10;;;6.30;99.90;;;;;;5072935;28;20440;-70
2022/11/26 00:23:03;;;;;;;18.05;6.00;;;6.10;99.90;;;;;;5072796;28;20094;-70
2022/11/26 00:25:43;;;;;;;15.88;6.65;;;6.20;99.90;;;;;;5073033;28;20040;-71
2022/11/26 00:28:29;;;;;;;20.98;6.68;;;6.20;99.90;;;;;;5072899;28;20048;-70
2022/11/26 00:30:58;;;;;;;15.50;6.03;;;6.20;99.90;;;;;;5072723;28;20032;-69
2022/11/26 00:33:24;;;;;;;18.50;6.82;;;6.20;99.90;;;;;;5054531;28;20094;-69
2022/11/26 00:35:54;;;;;;;16.85;6.10;;;6.20;99.90;;;;;;5072784;28;20064;-70
2022/11/26 00:38:21;;;;;;;14.93;6.88;;;6.10;99.90;;;;;;5072451;28;20089;-69
2022/11/26 00:40:47;;;;;;;17.92;6.32;;;5.90;99.90;;;;;;5072464;28;20068;-69
2022/11/26 00:43:14;;;;;;;17.60;5.88;;;6.00;99.90;;;;;;5072151;28;20049;-69
2022/11/26 00:45:40;;;;;;;17.02;7.20;;;6.00;99.90;;;;;;5072647;28;20438;-69
2022/11/26 00:48:06;;;;;;;22.23;7.35;;;5.90;99.90;;;;;;5072617;28;20036;-69
2022/11/26 00:50:41;;;;;;;22.38;7.65;;;6.00;99.90;;;;;;5103903;22;20314;-69
2022/11/26 00:53:09;;;;;;;14.18;5.85;;;6.10;99.90;;;;;;5091894;28;20052;-69
2022/11/26 00:55:40;;;;;;;19.30;6.95;;;6.20;99.90;;;;;;5092475;28;20531;-69
2022/11/26 00:58:12;;;;;;;20.83;6.55;;;5.90;99.90;;;;;;5092004;28;20051;-68
2022/11/26 01:00:37;;;;;;;17.63;6.47;;;6.20;99.90;;;;;;5091546;28;20040;-69
2022/11/26 01:03:03;;;;;;;13.85;6.20;;;6.00;99.90;;;;;;5091202;28;20040;-69
2022/11/26 01:05:32;;;;;;;17.33;6.95;;;5.90;99.90;;;;;;5091132;28;20119;-68
2022/11/26 01:08:01;;;;;;;20.60;7.78;;;5.90;99.90;;;;;;5074713;28;20082;-68
2022/11/26 01:10:28;;;;;;;14.80;6.43;;;6.00;99.90;;;;;;5090964;28;20036;-69
2022/11/26 01:12:55;;;;;;;18.77;6.50;;;6.00;99.90;;;;;;5092302;28;20039;-69
2022/11/26 01:15:24;;;;;;;18.30;6.88;;;5.90;99.90;;;;;;5092663;28;20028;-69
2022/11/26 01:17:51;;;;;;;20.60;7.68;;;6.00;99.90;;;;;;5090915;28;20068;-68
2022/11/26 01:20:22;;;;;;;21.02;6.93;;;5.90;99.90;;;;;;5092172;28;20047;-68
2022/11/26 01:22:48;;;;;;;21.58;7.50;;;6.00;99.90;;;;;;5091836;28;20093;-69
2022/11/26 01:25:14;;;;;;;23.33;7.70;;;6.00;99.90;;;;;;5090917;28;20051;-69
2022/11/26 01:27:40;;;;;;;21.52;7.30;;;6.20;99.90;;;;;;5092137;28;20036;-69
2022/11/26 01:30:20;;;;;;;17.83;6.75;;;5.90;99.90;;;;;;5091939;28;20028;-69
2022/11/26 01:32:47;;;;;;;20.05;7.28;;;6.20;99.90;;;;;;5090797;28;20048;-69
2022/11/26 01:35:14;;;;;;;24.92;8.13;;;5.80;99.90;;;;;;5091042;28;20117;-69
2022/11/26 01:37:39;;;;;;;22.08;7.72;;;5.80;99.90;;;;;;5090929;28;20490;-69
2022/11/26 01:40:35;;;;;;;19.77;6.85;;;6.00;99.90;;;;;;5092009;28;20036;-69
2022/11/26 01:43:05;;;;;;;14.02;6.47;;;5.90;99.90;;;;;;5089339;28;20501;-68
2022/11/26 01:45:30;;;;;;;23.42;8.23;;;5.90;99.90;;;;;;5090868;28;20048;-69
2022/11/26 01:47:56;;;;;;;17.55;7.70;;;5.90;99.90;;;;;;5091669;28;20377;-69
2022/11/26 01:50:47;;;;;;;15.20;8.07;;;5.80;99.90;;;;;;5089685;28;20032;-69
2022/11/26 01:53:34;;;;;;;13.50;7.55;;;5.90;99.90;;;;;;5090581;28;20432;-69
2022/11/26 01:56:12;;;;;;;18.48;7.20;;;5.80;99.90;;;;;;5073309;28;20456;-69
2022/11/26 01:58:43;;;;;;;18.27;7.93;;;6.00;99.90;;;;;;5090506;28;20043;-69
2022/11/26 02:01:09;;;;;;;19.85;6.70;;;5.80;99.90;;;;;;5090672;28;20521;-69
2022/11/26 02:03:41;;;;;;;13.55;7.35;;;5.90;99.90;;;;;;5090271;28;20052;-69
2022/11/26 02:06:14;;;;;;;13.35;6.82;;;5.70;99.90;;;;;;5090404;28;20044;-69
2022/11/26 02:08:40;;;;;;;11.90;5.90;;;5.80;99.90;;;;;;5073556;28;20040;-68
2022/11/26 02:11:15;;;;;;;12.35;5.68;;;5.90;99.90;;;;;;5091732;28;20040;-69
2022/11/26 02:13:41;;;;;;;13.18;5.90;;;5.80;99.90;;;;;;5091574;28;20119;-69
2022/11/26 02:16:14;;;;;;;15.93;8.32;;;5.70;99.90;;;;;;5091404;28;20064;-68
2022/11/26 02:18:45;;;;;;;17.55;7.57;;;5.70;99.90;;;;;;5090390;28;20040;-68
2022/11/26 02:21:25;;;;;;;17.90;6.93;;;5.60;99.90;;;;;;5091339;28;20040;-68
2022/11/26 02:24:09;;;;;;;15.70;6.30;;;5.60;99.90;;;;;;5090243;28;20390;-68
2022/11/26 02:26:55;;;;;;;;;;;5.80;99.90;;;;;;5092000;28;20472;-69
2022/11/26 02:29:56;;;;;;;14.18;6.25;;;5.60;99.90;;;;;;5090308;28;19923;-69
2022/11/26 02:32:31;;;;;;;16.25;6.28;;;5.90;99.90;;;;;;5089921;28;20067;-68
2022/11/26 02:35:05;;;;;;;19.70;6.32;;;5.90;99.90;;;;;;5090121;28;20094;-69
2022/11/26 02:37:41;;;;;;;17.65;6.82;;;5.80;99.90;;;;;;5091466;28;20036;-69
2022/11/26 02:40:07;;;;;;;18.25;7.53;;;5.50;99.90;;;;;;5089955;28;20040;-68
2022/11/26 02:42:34;;;;;;;18.33;8.32;;;5.50;99.90;;;;;;5091161;28;20105;-69
2022/11/26 02:45:25;;;;;;;14.75;8.23;;;5.60;99.90;;;;;;5073341;28;20040;-69
2022/11/26 02:47:57;;;;;;;16.60;7.20;;;5.60;99.90;;;;;;5079644;28;20062;-69
2022/11/26 02:50:53;;;;;;;16.52;7.35;;;5.50;99.90;;;;;;5089713;28;20036;-68
2022/11/26 02:53:21;;;;;;;15.50;6.03;;;5.60;99.90;;;;;;5072839;28;20044;-69
2022/11/26 02:55:52;;;;;;;14.30;5.75;;;5.40;99.90;;;;;;5089905;28;20036;-68
2022/11/26 02:58:19;;;;;;;18.88;6.30;;;5.60;99.90;;;;;;5073184;28;20044;-69
2022/11/26 03:00:47;;;;;;;18.52;6.75;;;5.50;99.90;;;;;;5091151;28;20097;-69
2022/11/26 03:03:26;;;;;;;16.05;8.02;;;5.80;99.90;;;;;;5093383;28;20040;-69
2022/11/26 03:06:05;;;;;;;14.05;6.63;;;5.50;99.90;;;;;;5094961;28;20517;-69
2022/11/26 03:08:32;;;;;;;15.13;6.97;;;5.50;99.90;;;;;;5094969;28;20110;-68
2022/11/26 03:10:58;;;;;;;13.15;6.45;;;5.70;99.90;;;;;;5094543;28;20044;-68
2022/11/26 03:13:24;;;;;;;14.43;7.63;;;5.30;99.90;;;;;;5094192;28;20063;-68
2022/11/26 03:15:49;;;;;;;15.00;6.82;;;5.60;99.90;;;;;;5094744;28;20036;-68
2022/11/26 03:18:15;;;;;;;18.83;7.18;;;5.50;99.90;;;;;;5093498;28;20044;-71
2022/11/26 03:20:40;;;;;;;17.75;7.45;;;5.30;99.90;;;;;;5094622;28;20048;-71
2022/11/26 03:23:06;;;;;;;17.85;7.95;;;5.30;99.90;;;;;;5092995;28;20489;-70
2022/11/26 03:25:32;;;;;;;17.23;7.32;;;5.30;99.90;;;;;;5093232;28;20040;-71
2022/11/26 03:27:58;;;;;;;19.25;7.57;;;5.40;99.90;;;;;;5094439;28;20097;-71
2022/11/26 03:30:24;;;;;;;17.35;8.52;;;5.40;99.90;;;;;;5094494;28;20047;-71
2022/11/26 03:32:49;;;;;;;17.30;8.15;;;5.40;99.90;;;;;;5094221;28;20039;-71
2022/11/26 03:35:15;;;;;;;13.77;8.45;;;5.40;99.90;;;;;;5094439;28;20579;-70
2022/11/26 03:37:40;;;;;;;17.50;8.13;;;5.10;99.90;;;;;;5094338;28;20486;-71
2022/11/26 03:40:12;;;;;;;18.73;7.95;;;5.10;99.90;;;;;;5094199;28;20036;-71
2022/11/26 03:42:38;;;;;;;11.70;6.95;;;5.40;99.90;;;;;;5093827;28;20039;-71
2022/11/26 03:45:04;;;;;;;12.73;6.88;;;5.30;99.90;;;;;;5094320;28;20044;-71
2022/11/26 03:47:30;;;;;;;14.32;8.13;;;5.10;99.90;;;;;;5094192;28;20448;-68
2022/11/26 03:49:55;;;;;;;15.85;7.32;;;5.10;99.90;;;;;;5092813;28;20067;-68
2022/11/26 03:52:21;;;;;;;16.60;8.18;;;5.30;99.90;;;;;;5092483;28;20033;-68
2022/11/26 03:54:46;;;;;;;16.27;8.90;;;4.90;99.90;;;;;;5093925;28;20040;-68
2022/11/26 03:57:12;;;;;;;26.67;10.07;;;5.20;99.90;;;;;;5093743;28;20044;-68
2022/11/26 03:59:38;;;;;;;27.42;10.63;;;5.10;99.90;;;;;;5092364;28;20044;-68
2022/11/26 04:02:04;;;;;;;25.77;11.52;;;5.10;99.90;;;;;;5093841;28;20039;-68
2022/11/26 04:04:30;;;;;;;26.80;11.23;;;5.40;99.90;;;;;;5093553;28;20071;-68
2022/11/26 04:06:55;;;;;;;21.92;11.60;;;5.40;99.90;;;;;;5093661;28;20079;-68
2022/11/26 04:09:21;;;;;;;24.20;12.60;;;5.20;99.90;;;;;;5093517;28;20044;-68
2022/11/26 04:11:49;;;;;;;20.35;10.75;;;5.10;99.90;;;;;;5093272;28;20036;-68
2022/11/26 04:14:15;;;;;;;24.23;12.75;;;5.20;99.90;;;;;;5092962;28;20555;-68
2022/11/26 04:16:40;;;;;;;21.05;11.65;;;5.20;99.90;;;;;;5093486;28;20032;-68
2022/11/26 04:19:06;;;;;;;22.38;12.45;;;5.30;99.90;;;;;;5093335;28;20036;-68
2022/11/26 04:21:32;;;;;;;25.15;11.70;;;5.40;99.90;;;;;;5093350;28;20115;-68
2022/11/26 04:23:57;;;;;;;24.73;11.27;;;5.20;99.90;;;;;;5092982;28;20105;-68
2022/11/26 04:26:23;;;;;;;19.58;10.85;;;5.20;99.90;;;;;;5092394;28;20371;-68
2022/11/26 04:28:49;;;;;;;16.88;9.98;;;5.10;99.90;;;;;;5093395;28;20040;-68
2022/11/26 04:31:15;;;;;;;23.27;10.35;;;5.40;99.90;;;;;;5093155;28;20048;-68
2022/11/26 04:33:41;;;;;;;21.73;11.65;;;5.40;99.90;;;;;;5091602;28;20051;-68
2022/11/26 04:36:07;;;;;;;19.95;11.40;;;5.20;99.90;;;;;;5093196;28;20111;-68
2022/11/26 04:38:32;;;;;;;26.85;13.20;;;5.40;99.90;;;;;;5093000;28;20044;-68
2022/11/26 04:40:58;;;;;;;20.95;10.43;;;5.30;99.90;;;;;;5092955;28;20044;-68
2022/11/26 04:43:24;;;;;;;21.67;9.88;;;5.40;99.90;;;;;;5092750;28;20397;-68
2022/11/26 04:45:49;;;;;;;19.25;9.88;;;5.20;99.90;;;;;;5093091;28;20459;-68
2022/11/26 04:48:15;;;;;;;26.67;10.30;;;5.20;99.90;;;;;;5074844;28;20058;-68
2022/11/26 04:50:41;;;;;;;16.27;10.73;;;5.30;99.90;;;;;;5092735;28;20082;-68
2022/11/26 04:53:06;;;;;;;18.02;10.05;;;5.20;99.90;;;;;;5092602;28;20048;-68
2022/11/26 04:55:32;;;;;;;19.70;9.95;;;5.30;99.90;;;;;;5092632;28;20040;-68
2022/11/26 04:57:58;;;;;;;15.82;8.15;;;5.30;99.90;;;;;;5092843;28;20043;-68
2022/11/26 05:00:23;;;;;;;16.75;9.30;;;5.30;99.90;;;;;;5088724;28;20063;-69
2022/11/26 05:02:49;;;;;;;23.13;9.13;;;5.10;99.90;;;;;;5084002;28;20028;-69
2022/11/26 05:05:14;;;;;;;11.63;8.10;;;5.10;99.90;;;;;;5091081;28;20036;-68
2022/11/26 05:07:40;;;;;;;18.20;8.73;;;4.90;99.90;;;;;;5083991;28;20024;-68
2022/11/26 05:10:07;;;;;;;18.27;10.20;;;5.00;99.90;;;;;;5074307;28;20121;-68
2022/11/26 05:12:33;;;;;;;17.52;9.23;;;5.10;99.90;;;;;;5092374;28;20036;-68
2022/11/26 05:14:59;;;;;;;17.52;9.65;;;4.80;99.90;;;;;;5091124;28;20111;-69
2022/11/26 05:17:24;;;;;;;15.40;7.75;;;5.10;99.90;;;;;;5092414;28;20071;-69
2022/11/26 05:19:50;;;;;;;12.55;8.43;;;4.70;99.90;;;;;;5092308;28;20040;-68
2022/11/26 05:22:15;;;;;;;11.52;8.70;;;4.70;99.90;;;;;;5092184;28;20040;-68
2022/11/26 05:24:41;;;;;;;15.68;9.10;;;4.80;99.90;;;;;;5091290;28;20048;-68
2022/11/26 05:27:06;;;;;;;18.90;8.65;;;5.00;99.90;;;;;;5092437;28;20042;-68
2022/11/26 05:29:32;;;;;;;16.58;8.25;;;4.90;99.90;;;;;;5074061;28;20039;-68
2022/11/26 05:31:58;;;;;;;16.48;9.02;;;4.90;99.90;;;;;;5092503;28;20447;-69
2022/11/26 05:34:23;;;;;;;19.48;8.77;;;4.80;99.90;;;;;;5091070;28;20044;-68
2022/11/26 05:36:49;;;;;;;16.63;8.45;;;5.00;99.90;;;;;;5092187;28;20039;-68
2022/11/26 05:39:15;;;;;;;14.88;8.40;;;4.60;99.90;;;;;;5092086;28;20081;-68
2022/11/26 05:41:41;;;;;;;17.48;8.98;;;4.80;99.90;;;;;;5092443;28;20122;-68
2022/11/26 05:44:07;;;;;;;16.60;8.65;;;4.60;99.90;;;;;;5092217;28;20042;-68
2022/11/26 05:46:39;;;;;;;15.38;7.88;;;4.90;99.90;;;;;;5092547;28;20032;-68
2022/11/26 05:49:05;;;;;;;20.05;9.82;;;4.60;99.90;;;;;;5091096;28;20040;-68
2022/11/26 05:51:30;;;;;;;14.10;8.30;;;4.60;99.90;;;;;;5090358;28;20043;-69
2022/11/26 05:53:56;;;;;;;17.02;8.05;;;4.80;99.90;;;;;;5091869;28;20036;-67
2022/11/26 05:56:22;;;;;;;17.27;9.05;;;4.90;99.90;;;;;;5092070;28;20403;-69
2022/11/26 05:58:47;;;;;;;11.88;8.68;;;4.60;99.90;;;;;;5090796;28;20082;-69
2022/11/26 06:01:13;;;;;;;15.48;8.43;;;4.60;99.90;;;;;;5091749;28;20046;-69
2022/11/26 06:03:38;;;;;;;16.38;8.65;;;4.90;99.90;;;;;;5091600;28;20482;-69
2022/11/26 06:06:04;;;;;;;15.27;9.57;;;4.80;99.90;;;;;;5091621;28;20044;-69
2022/11/26 06:08:30;;;;;;;18.67;9.13;;;4.50;99.90;;;;;;5091661;28;20036;-69
2022/11/26 06:10:56;;;;;;;18.17;8.40;;;4.80;99.90;;;;;;5091614;28;20058;-70
2022/11/26 06:13:21;;;;;;;16.00;8.95;;;4.90;99.90;;;;;;5090171;28;20090;-69
2022/11/26 06:15:47;;;;;;;14.48;7.80;;;4.80;99.90;;;;;;5091919;28;20075;-69
2022/11/26 06:18:12;;;;;;;20.08;7.72;;;4.60;99.90;;;;;;5090567;28;20119;-69
2022/11/26 06:20:38;;;;;;;16.98;8.50;;;4.50;99.90;;;;;;5091555;28;20411;-69
2022/11/26 06:23:04;;;;;;;13.13;8.00;;;4.60;99.90;;;;;;5089899;28;20563;-69
2022/11/26 06:25:29;;;;;;;14.73;7.82;;;4.70;99.90;;;;;;5091730;28;20556;-70
2022/11/26 06:27:55;;;;;;;11.90;8.10;;;4.70;99.90;;;;;;5091697;28;20082;-70
2022/11/26 06:30:21;;;;;;;18.75;10.02;;;4.40;99.90;;;;;;5091427;28;20040;-70
2022/11/26 06:32:48;;;;;;;14.23;7.95;;;4.80;99.90;;;;;;5090002;28;20520;-70
2022/11/26 06:35:13;;;;;;;14.73;7.90;;;4.50;99.90;;;;;;5091516;28;20508;-70
2022/11/26 06:37:39;;;;;;;12.27;7.88;;;4.50;99.90;;;;;;5094736;28;20071;-70
2022/11/26 06:40:06;;;;;;;18.42;9.45;;;4.80;99.90;;;;;;5094329;28;20070;-70
2022/11/26 06:42:31;;;;;;;22.02;8.82;;;4.70;99.90;;;;;;5094092;28;20043;-70
2022/11/26 06:44:57;;;;;;;13.30;7.30;;;4.40;99.90;;;;;;5094094;28;20036;-70
2022/11/26 06:47:23;;;;;;;16.45;9.13;;;4.40;99.90;;;;;;5094024;28;20466;-70
2022/11/26 06:49:48;;;;;;;12.65;7.10;;;4.40;99.90;;;;;;5118459;22;20043;-71
2022/11/26 06:52:14;;;;;;;13.02;7.90;;;4.60;99.90;;;;;;5093776;28;20161;-71
2022/11/26 06:54:39;;;;;;;13.95;7.78;;;4.60;99.90;;;;;;5114896;28;20042;-70
2022/11/26 06:57:05;;;;;;;13.27;8.98;;;4.20;99.90;;;;;;5114865;28;20043;-70
2022/11/26 06:59:31;;;;;;;15.10;9.35;;;4.60;99.90;;;;;;5115446;28;20120;-70
2022/11/26 07:01:56;;;;;;;20.55;8.77;;;4.30;99.90;;;;;;5115348;28;20048;-70
2022/11/26 07:04:22;;;;;;;17.58;9.70;;;4.30;99.90;;;;;;5114943;28;20027;-70
2022/11/26 07:06:47;;;;;;;18.73;11.00;;;4.60;99.90;;;;;;5115340;28;20043;-70
2022/11/26 07:09:13;;;;;;;17.33;8.77;;;4.60;99.90;;;;;;5115335;28;20080;-70
2022/11/26 07:11:39;;;;;;;18.50;10.18;;;4.60;99.90;;;;;;5096726;28;20088;-70
2022/11/26 07:14:06;;;;;;;15.55;9.18;;;4.50;99.90;;;;;;5114798;28;20046;-70
2022/11/26 07:16:31;;;;;;;16.23;8.63;;;4.60;99.90;;;;;;5114899;28;20032;-70
2022/11/26 07:18:58;;;;;;;11.77;8.02;;;4.60;99.90;;;;;;5114966;28;20046;-70
2022/11/26 07:21:25;;;;;;;14.70;9.68;;;4.50;99.90;;;;;;5096551;28;20039;-70
2022/11/26 07:23:50;;;;;;;18.35;10.25;;;4.20;99.90;;;;;;5114797;28;20039;-70
2022/11/26 07:26:18;;;;;;;19.58;9.75;;;4.30;99.90;;;;;;5114733;28;20059;-70
2022/11/26 07:28:45;;;;;;;13.52;9.70;;;4.20;99.90;;;;;;5114914;28;20063;-70
2022/11/26 07:31:13;;;;;;;20.10;10.50;;;4.50;99.90;;;;;;5096370;28;20086;-70
2022/11/26 07:33:39;;;;;;;24.70;11.43;;;4.50;99.90;;;;;;5096402;28;20381;-70
2022/11/26 07:36:08;;;;;;;15.50;9.70;;;4.60;99.90;;;;;;5114935;28;20104;-70
2022/11/26 07:38:33;;;;;;;16.33;9.98;;;4.50;99.90;;;;;;5114796;28;20040;-70
2022/11/26 07:41:07;;;;;;;16.63;10.50;;;4.70;99.90;;;;;;5114532;28;20122;-70
2022/11/26 07:43:34;;;;;;;19.63;11.15;;;4.50;99.90;;;;;;5114292;28;20039;-70
2022/11/26 07:46:01;;;;;;;21.05;11.23;;;4.40;99.90;;;;;;5114424;28;20050;-70
2022/11/26 07:48:28;;;;;;;16.70;11.20;;;4.30;99.90;;;;;;5095384;28;20074;-70
2022/11/26 07:50:54;;;;;;;19.75;11.45;;;4.50;99.90;;;;;;5096039;28;20436;-70
2022/11/26 07:53:19;;;;;;;21.52;11.65;;;4.30;99.90;;;;;;5114159;28;20031;-70
2022/11/26 07:55:45;;;;;;;24.33;14.60;;;4.60;99.90;;;;;;5114240;28;20405;-70
2022/11/26 07:58:10;;;;;;;22.92;13.20;;;4.40;99.90;;;;;;5114163;28;20717;-70
2022/11/26 08:00:36;;;;;;;20.05;12.38;;;4.50;99.90;;;;;;5114105;28;20047;-70
2022/11/26 08:03:01;;;;;;;22.55;13.13;;;4.90;99.90;;;;;;5113716;28;20043;-70
2022/11/26 08:05:27;;;;;;;23.88;13.23;;;5.00;99.90;;;;;;5114256;28;20419;-70
2022/11/26 08:07:52;;;;;;;23.17;12.50;;;4.60;99.90;;;;;;5114151;28;20039;-70
2022/11/26 08:10:18;;;;;;;22.92;13.93;;;4.70;99.90;;;;;;5107483;28;20039;-70
2022/11/26 08:12:44;;;;;;;25.80;15.80;;;5.00;99.90;;;;;;5089557;28;20036;-70
2022/11/26 08:15:10;;;;;;;22.75;14.07;;;5.20;99.90;;;;;;5095519;28;20071;-70
2022/11/26 08:17:35;;;;;;;29.77;15.73;;;4.90;99.90;;;;;;5113721;28;20074;-70
2022/11/26 08:20:01;;;;;;;32.10;17.00;;;5.00;99.90;;;;;;5095927;28;20506;-70
2022/11/26 08:22:28;;;;;;;25.02;13.85;;;5.30;99.90;;;;;;5095391;28;20496;-70
2022/11/26 08:24:54;;;;;;;28.15;15.25;;;5.40;99.90;;;;;;5095589;28;20039;-70
2022/11/26 08:27:20;;;;;;;27.83;16.33;;;5.60;99.90;;;;;;5095307;28;20485;-70
2022/11/26 08:29:45;;;;;;;31.35;17.08;;;5.40;99.90;;;;;;5095282;28;20534;-70
2022/11/26 08:32:11;;;;;;;26.27;15.93;;;5.50;99.90;;;;;;5113266;28;20504;-70
2022/11/26 08:34:37;;;;;;;31.50;16.83;;;5.40;99.90;;;;;;5113283;28;20061;-71
2022/11/26 08:37:03;;;;;;;27.55;15.50;;;5.80;99.90;;;;;;5113634;28;20039;-71
2022/11/26 08:39:28;;;;;;;29.65;16.55;;;5.80;99.90;;;;;;5113341;28;20057;-70
2022/11/26 08:41:54;;;;;;;30.77;17.67;;;5.70;99.90;;;;;;5113291;28;20510;-71
2022/11/26 08:44:20;;;;;;;25.02;15.30;;;5.80;99.90;;;;;;5112966;28;20488;-71
2022/11/26 08:46:46;;;;;;;27.70;15.15;;;5.80;99.90;;;;;;5113131;28;20097;-72
2022/11/26 08:49:13;;;;;;;37.03;16.48;;;5.80;99.90;;;;;;5094892;28;20035;-71
2022/11/26 08:51:40;;;;;;;28.73;15.98;;;5.80;99.90;;;;;;5113190;28;20043;-74
2022/11/26 08:54:05;;;;;;;30.88;16.42;;;5.90;99.90;;;;;;5094264;28;20413;-74
2022/11/26 08:56:31;;;;;;;29.52;15.85;;;6.10;99.90;;;;;;5095064;28;20046;-74
2022/11/26 08:58:57;;;;;;;31.30;17.27;;;6.20;99.90;;;;;;5094629;28;20042;-73
2022/11/26 09:01:25;;;;;;;25.65;16.73;;;6.10;99.90;;;;;;5094148;28;20043;-74
2022/11/26 09:03:52;;;;;;;31.17;18.25;;;6.10;99.90;;;;;;5094390;28;20044;-74
2022/11/26 09:06:19;;;;;;;36.10;17.60;;;6.30;99.90;;;;;;5094912;28;20069;-74
2022/11/26 09:11:31;;;;;;;33.03;16.85;;;6.20;99.90;;;;;;5112658;28;20100;-74
2022/11/26 09:13:58;;;;;;;33.00;17.65;;;6.50;99.90;;;;;;5094156;28;20130;-74
2022/11/26 09:16:24;;;;;;;30.90;16.73;;;6.20;99.90;;;;;;5094421;28;20039;-74
2022/11/26 09:18:50;;;;;;;32.30;16.38;;;6.50;99.90;;;;;;5077443;28;20577;-74
2022/11/26 09:21:16;;;;;;;37.65;17.90;;;6.50;99.90;;;;;;5094603;28;20429;-74
2022/11/26 09:23:42;;;;;;;35.92;17.40;;;6.50;99.90;;;;;;5094191;28;20044;-74
2022/11/26 09:26:08;;;;;;;30.73;16.98;;;6.50;99.90;;;;;;5094230;28;20040;-74
2022/11/26 09:28:33;;;;;;;40.13;17.90;;;6.70;99.90;;;;;;5112877;28;20114;-73
2022/11/26 09:31:00;;;;;;;30.60;15.45;;;6.70;99.90;;;;;;5094171;28;20096;-75
2022/11/26 09:33:26;;;;;;;32.03;18.38;;;6.70;99.90;;;;;;5093889;28;20400;-74
2022/11/26 09:35:52;;;;;;;31.63;16.90;;;6.70;99.90;;;;;;5094213;28;20066;-74
2022/11/26 09:38:18;;;;;;;30.83;16.90;;;6.80;99.90;;;;;;5077226;28;20078;-73
2022/11/26 09:41:02;;;;;;;35.78;16.90;;;6.80;99.90;;;;;;5093975;28;20440;-73
2022/11/26 09:43:30;;;;;;;;;;;6.90;99.90;;;;;;5094228;28;20618;-73
2022/11/26 09:46:00;;;;;;;40.00;16.90;;;6.90;99.90;;;;;;5094041;28;19916;-73
2022/11/26 09:48:29;;;;;;;34.80;16.98;;;6.90;99.90;;;;;;5112120;28;20417;-73
2022/11/26 09:51:02;;;;;;;37.58;17.45;;;7.00;99.90;;;;;;5093647;28;20429;-73
2022/11/26 09:53:32;;;;;;;31.73;17.35;;;6.90;99.90;;;;;;5111763;28;20051;-73
2022/11/26 09:55:59;;;;;;;28.98;14.73;;;6.90;99.90;;;;;;5093893;28;20042;-73
2022/11/26 09:58:42;;;;;;;36.22;17.67;;;7.10;99.90;;;;;;5112068;28;20524;-73
2022/11/26 10:01:17;;;;;;;32.15;15.75;;;7.20;99.90;;;;;;5093805;28;20039;-73
2022/11/26 10:03:43;;;;;;;41.33;19.45;;;7.00;99.90;;;;;;5111722;28;20048;-74
2022/11/26 10:06:26;;;;;;;43.72;17.80;;;7.30;99.90;;;;;;5112253;28;20113;-73
2022/11/26 10:09:25;;;;;;;39.25;16.23;;;7.20;99.90;;;;;;5093776;28;20136;-73
2022/11/26 10:12:02;;;;;;;36.45;17.63;;;7.20;99.90;;;;;;5095618;28;20069;-73
2022/11/26 10:15:06;;;;;;;32.88;15.65;;;7.30;99.90;;;;;;5097654;28;20552;-73
2022/11/26 10:17:47;;;;;;;39.08;15.60;;;7.40;99.90;;;;;;5116108;28;20532;-73
2022/11/26 10:20:44;;;;;;;27.00;16.38;;;7.40;99.90;;;;;;5097867;28;20076;-74
2022/11/26 10:23:12;;;;;;;37.78;16.08;;;7.50;99.90;;;;;;5116095;28;20040;-73
2022/11/26 10:25:44;;;;;;;38.72;17.30;;;7.40;99.90;;;;;;5116427;28;20421;-74
2022/11/26 10:28:20;;;;;;;33.78;14.77;;;7.50;99.90;;;;;;5080912;28;20042;-73
2022/11/26 10:30:59;;;;;;;30.08;16.08;;;7.50;99.90;;;;;;5115740;28;20073;-73
2022/11/26 10:33:30;;;;;;;32.50;15.43;;;7.50;99.90;;;;;;5115678;28;20032;-72
2022/11/26 10:35:55;;;;;;;29.00;18.67;;;7.60;99.90;;;;;;5116337;28;20046;-73
2022/11/26 10:38:21;;;;;;;31.20;14.85;;;7.60;99.90;;;;;;5115870;28;20027;-73
2022/11/26 10:40:47;;;;;;;39.15;16.95;;;7.70;99.90;;;;;;5115769;28;20043;-73
2022/11/26 10:43:19;;;;;;;35.42;17.17;;;7.80;99.90;;;;;;5097075;28;20046;-72
2022/11/26 10:45:49;;;;;;;38.35;17.02;;;7.70;99.90;;;;;;5115923;28;20043;-72
2022/11/26 10:48:16;;;;;;;34.97;17.10;;;7.80;99.90;;;;;;5115731;28;20126;-72
2022/11/26 10:50:53;;;;;;;32.92;16.00;;;7.80;99.90;;;;;;5096966;28;20043;-72
2022/11/26 10:53:21;;;;;;;32.33;16.70;;;7.80;99.90;;;;;;5097176;28;20401;-72
2022/11/26 10:55:47;;;;;;;34.55;18.20;;;7.80;99.90;;;;;;5097096;28;20397;-72
2022/11/26 10:58:20;;;;;;;39.83;20.52;;;7.90;99.90;;;;;;5115583;28;20028;-72
2022/11/26 11:00:49;;;;;;;44.25;23.05;;;8.00;99.90;;;;;;5115481;28;20032;-72
2022/11/26 11:03:24;;;;;;;43.85;19.63;;;7.90;99.90;;;;;;5115094;28;20047;-72
2022/11/26 11:05:50;;;;;;;33.22;19.63;;;8.00;99.90;;;;;;5115147;28;20077;-73
2022/11/26 11:08:31;;;;;;;38.03;19.63;;;8.00;99.90;;;;;;5097039;28;20102;-73
2022/11/26 11:10:59;;;;;;;40.17;19.70;;;8.20;99.90;;;;;;5096617;28;20058;-73
2022/11/26 11:13:43;;;;;;;34.00;19.75;;;8.00;99.90;;;;;;5096608;28;20043;-73
2022/11/26 11:16:11;;;;;;;38.63;21.08;;;8.30;99.90;;;;;;5097000;28;20393;-73
2022/11/26 11:18:45;;;;;;;40.22;21.02;;;8.30;99.90;;;;;;5096767;28;20122;-73
2022/11/26 11:21:16;;;;;;;43.92;23.60;;;8.10;99.90;;;;;;5096503;28;20095;-73
2022/11/26 11:23:41;;;;;;;47.88;23.08;;;8.30;99.90;;;;;;5095404;28;20097;-73
2022/11/26 11:26:36;;;;;;;42.92;23.30;;;8.30;99.90;;;;;;5096923;28;20497;-73
2022/11/26 11:29:02;;;;;;;48.40;21.98;;;8.40;99.90;;;;;;5096342;28;20047;-72
2022/11/26 11:31:43;;;;;;;49.42;24.30;;;8.50;99.90;;;;;;5096324;28;20097;-72
2022/11/26 11:34:19;;;;;;;44.40;25.38;;;8.30;99.90;;;;;;5096084;28;20075;-72
2022/11/26 11:37:04;;;;;;;43.15;21.73;;;8.50;99.90;;;;;;5079603;28;20039;-73
2022/11/26 11:39:33;;;;;;;38.70;22.08;;;8.30;99.90;;;;;;5079350;28;20042;-73
2022/11/26 11:42:01;;;;;;;33.60;20.85;;;8.50;99.90;;;;;;5114669;28;20459;-73
2022/11/26 11:44:45;;;;;;;36.10;21.35;;;8.40;99.90;;;;;;5114408;28;20035;-72
2022/11/26 11:47:39;;;;;;;36.75;22.13;;;8.40;99.90;;;;;;5114420;28;20039;-72
2022/11/26 11:50:19;;;;;;;42.05;23.00;;;8.60;99.90;;;;;;5114312;28;20069;-73
2022/11/26 11:53:13;;;;;;;40.58;20.13;;;8.50;99.90;;;;;;5114466;28;20039;-73
2022/11/26 11:56:16;;;;;;;42.95;22.23;;;8.60;99.90;;;;;;5096275;28;20044;-72
2022/11/26 11:59:02;;;;;;;37.88;20.92;;;8.40;99.90;;;;;;5114223;28;20405;-72
2022/11/26 12:02:01;;;;;;;41.00;22.75;;;8.50;99.90;;;;;;5114243;28;20036;-72
2022/11/26 12:04:50;;;;;;;41.15;21.67;;;8.60;99.90;;;;;;5113854;28;20517;-72
2022/11/26 12:07:59;;;;;;;36.75;22.67;;;8.40;99.90;;;;;;5114337;28;20141;-73
2022/11/26 12:10:42;;;;;;;46.50;21.50;;;8.50;99.90;;;;;;4995056;28;20050;-73
2022/11/26 12:13:11;;;;;;;40.80;22.30;;;8.40;99.90;;;;;;5092558;28;20047;-72
2022/11/26 12:15:55;;;;;;;40.90;21.65;;;8.60;99.90;;;;;;5114079;28;20493;-73
2022/11/26 12:18:46;;;;;;;38.58;23.50;;;8.50;99.90;;;;;;5113928;28;20119;-73
2022/11/26 12:21:15;;;;;;;48.05;23.95;;;8.60;99.90;;;;;;5112551;28;20055;-72
2022/11/26 12:23:43;;;;;;;49.10;25.88;;;8.60;99.90;;;;;;5095421;28;20039;-72
2022/11/26 12:26:35;;;;;;;45.63;24.70;;;8.70;99.90;;;;;;5113758;28;20066;-72
2022/11/26 12:29:23;;;;;;;51.30;23.40;;;8.60;99.90;;;;;;5113664;28;20079;-72
2022/11/26 12:31:56;;;;;;;59.28;25.33;;;8.70;99.90;;;;;;5113274;28;20044;-73
2022/11/26 12:34:30;;;;;;;50.58;26.20;;;8.60;99.90;;;;;;5094511;28;20067;-73
2022/11/26 12:37:11;;;;;;;51.55;28.13;;;8.60;99.90;;;;;;5094947;28;20036;-73
2022/11/26 12:39:46;;;;;;;54.90;26.73;;;8.70;99.90;;;;;;5095300;28;20386;-72
2022/11/26 12:42:32;;;;;;;61.30;29.48;;;8.70;99.90;;;;;;5094887;28;20100;-72
2022/11/26 12:45:17;;;;;;;58.42;28.52;;;8.60;99.90;;;;;;5113380;28;20127;-73
2022/11/26 12:47:52;;;;;;;47.40;27.67;;;8.60;99.90;;;;;;5113135;28;20046;-74
2022/11/26 12:50:37;;;;;;;55.45;27.50;;;8.70;99.90;;;;;;5132864;22;20500;-71
2022/11/26 12:53:17;;;;;;;58.08;28.65;;;8.70;99.90;;;;;;5050472;28;20056;-72
2022/11/26 12:56:35;;;;;;;57.40;28.92;;;8.70;99.90;;;;;;5051268;28;20041;-72
2022/11/26 12:59:08;;;;;;;60.33;28.40;;;8.60;99.90;;;;;;4994088;28;20042;-72
2022/11/26 13:01:34;;;;;;;55.50;28.83;;;8.60;99.90;;;;;;5042671;28;20080;-72